Terminal Aerodrome Forecast
Issued by NWS

Home | Current Version | Previous Version | Text Only | Print | Product List | Glossary On
Versions: 1 2 3 4 5 6 7 8 9 10 11 12 13 14 15
791
FTUS42 KJAX 290529
TAFCRG
TAF
KCRG 290529Z 2906/3006 28002KT P6SM SCT250
     FM291400 30006KT P6SM FEW050 SCT250
     FM291800 11008KT P6SM SCT050
     FM300200 VRB02KT P6SM FEW050=

USA.gov is the U.S. government's official web portal to all federal, state and local government web resources and services.